sensor_id;sensor_type;location;lat;lon;timestamp;pressure;altitude;pressure_sealevel;temperature;humidity
54948;BME280;41113;41.882;12.530;2022-09-30T00:01:20;100131.63;;;18.87;78.05
54948;BME280;41113;41.882;12.530;2022-09-30T00:03:45;100130.78;;;18.87;78.07
54948;BME280;41113;41.882;12.530;2022-09-30T00:06:14;100126.56;;;18.84;78.10
54948;BME280;41113;41.882;12.530;2022-09-30T00:08:40;100130.13;;;18.85;77.79
54948;BME280;41113;41.882;12.530;2022-09-30T00:11:10;100127.25;;;18.86;77.74
54948;BME280;41113;41.882;12.530;2022-09-30T00:13:38;100127.25;;;18.86;77.90
54948;BME280;41113;41.882;12.530;2022-09-30T00:16:05;100129.28;;;18.84;77.82
54948;BME280;41113;41.882;12.530;2022-09-30T00:18:31;100119.44;;;18.83;77.69
54948;BME280;41113;41.882;12.530;2022-09-30T00:20:57;100120.50;;;18.82;77.73
54948;BME280;41113;41.882;12.530;2022-09-30T00:23:24;100133.06;;;18.83;77.66
54948;BME280;41113;41.882;12.530;2022-09-30T00:25:50;100137.88;;;18.81;77.80
54948;BME280;41113;41.882;12.530;2022-09-30T00:28:16;100125.09;;;18.82;77.65
54948;BME280;41113;41.882;12.530;2022-09-30T00:30:42;100133.66;;;18.79;77.80
54948;BME280;41113;41.882;12.530;2022-09-30T00:33:08;100137.22;;;18.79;77.86
54948;BME280;41113;41.882;12.530;2022-09-30T00:35:33;100135.97;;;18.82;77.53
54948;BME280;41113;41.882;12.530;2022-09-30T00:37:59;100140.84;;;18.86;77.45
54948;BME280;41113;41.882;12.530;2022-09-30T00:40:25;100134.34;;;18.87;77.51
54948;BME280;41113;41.882;12.530;2022-09-30T00:42:51;100145.63;;;18.84;77.58
54948;BME280;41113;41.882;12.530;2022-09-30T00:45:17;100142.03;;;18.77;77.80
54948;BME280;41113;41.882;12.530;2022-09-30T00:52:41;100148.47;;;18.63;79.02
54948;BME280;41113;41.882;12.530;2022-09-30T00:55:25;100142.38;;;18.61;79.05
54948;BME280;41113;41.882;12.530;2022-09-30T00:57:54;100139.00;;;18.59;79.11
54948;BME280;41113;41.882;12.530;2022-09-30T01:00:20;100142.56;;;18.59;79.00
54948;BME280;41113;41.882;12.530;2022-09-30T01:02:46;100146.38;;;18.65;78.77
54948;BME280;41113;41.882;12.530;2022-09-30T01:05:12;100145.91;;;18.61;78.92
54948;BME280;41113;41.882;12.530;2022-09-30T01:07:38;100140.00;;;18.51;79.79
54948;BME280;41113;41.882;12.530;2022-09-30T01:10:04;100134.69;;;18.37;80.50
54948;BME280;41113;41.882;12.530;2022-09-30T01:12:30;100145.34;;;18.31;80.69
54948;BME280;41113;41.882;12.530;2022-09-30T01:14:56;100147.47;;;18.43;80.17
54948;BME280;41113;41.882;12.530;2022-09-30T01:17:42;100146.16;;;18.32;80.92
54948;BME280;41113;41.882;12.530;2022-09-30T01:31:47;100140.72;;;18.32;82.08
54948;BME280;41113;41.882;12.530;2022-09-30T01:34:38;100136.13;;;18.32;81.05
54948;BME280;41113;41.882;12.530;2022-09-30T01:37:30;100140.69;;;18.25;81.95
54948;BME280;41113;41.882;12.530;2022-09-30T01:43:03;100127.59;;;18.08;82.90
54948;BME280;41113;41.882;12.530;2022-09-30T01:45:34;100130.13;;;18.09;82.70
54948;BME280;41113;41.882;12.530;2022-09-30T01:49:06;100133.06;;;18.14;82.30
54948;BME280;41113;41.882;12.530;2022-09-30T01:51:36;100134.97;;;18.14;83.16
54948;BME280;41113;41.882;12.530;2022-09-30T01:54:16;100138.88;;;18.04;84.05
54948;BME280;41113;41.882;12.530;2022-09-30T01:56:48;100134.69;;;18.02;84.67
54948;BME280;41113;41.882;12.530;2022-09-30T01:59:25;100134.84;;;17.94;86.09
54948;BME280;41113;41.882;12.530;2022-09-30T02:01:55;100137.81;;;17.78;86.37
54948;BME280;41113;41.882;12.530;2022-09-30T02:04:34;100129.63;;;17.71;87.85
54948;BME280;41113;41.882;12.530;2022-09-30T02:07:04;100128.50;;;17.65;86.91
54948;BME280;41113;41.882;12.530;2022-09-30T02:09:41;100133.94;;;17.65;87.32
54948;BME280;41113;41.882;12.530;2022-09-30T02:12:14;100128.25;;;17.60;88.19
54948;BME280;41113;41.882;12.530;2022-09-30T02:14:58;100133.50;;;17.62;87.73
54948;BME280;41113;41.882;12.530;2022-09-30T02:17:32;100139.00;;;17.68;86.60
54948;BME280;41113;41.882;12.530;2022-09-30T02:20:07;100130.31;;;17.80;85.96
54948;BME280;41113;41.882;12.530;2022-09-30T02:22:41;100135.75;;;17.80;85.69
54948;BME280;41113;41.882;12.530;2022-09-30T02:25:12;100141.69;;;17.90;85.14
54948;BME280;41113;41.882;12.530;2022-09-30T02:27:47;100131.34;;;17.79;86.03
54948;BME280;41113;41.882;12.530;2022-09-30T02:30:15;100137.03;;;17.84;85.28
54948;BME280;41113;41.882;12.530;2022-09-30T02:32:52;100154.25;;;17.91;85.06
54948;BME280;41113;41.882;12.530;2022-09-30T02:35:21;100153.06;;;18.00;85.38
54948;BME280;41113;41.882;12.530;2022-09-30T02:37:53;100140.47;;;17.92;85.93
54948;BME280;41113;41.882;12.530;2022-09-30T02:41:00;100139.50;;;17.79;86.71
54948;BME280;41113;41.882;12.530;2022-09-30T02:43:29;100131.94;;;17.74;86.20
54948;BME280;41113;41.882;12.530;2022-09-30T02:46:10;100138.66;;;17.78;85.33
54948;BME280;41113;41.882;12.530;2022-09-30T02:49:04;100137.81;;;17.78;85.13
54948;BME280;41113;41.882;12.530;2022-09-30T02:54:22;100137.22;;;17.82;84.64
54948;BME280;41113;41.882;12.530;2022-09-30T02:56:58;100141.31;;;17.71;85.00
54948;BME280;41113;41.882;12.530;2022-09-30T02:59:26;100136.34;;;17.75;84.92
54948;BME280;41113;41.882;12.530;2022-09-30T03:01:52;100147.41;;;17.73;85.06
54948;BME280;41113;41.882;12.530;2022-09-30T03:04:21;100142.16;;;17.72;85.13
54948;BME280;41113;41.882;12.530;2022-09-30T03:06:49;100148.69;;;17.78;84.83
54948;BME280;41113;41.882;12.530;2022-09-30T03:09:15;100147.06;;;17.83;84.41
54948;BME280;41113;41.882;12.530;2022-09-30T03:11:41;100154.25;;;17.91;83.59
54948;BME280;41113;41.882;12.530;2022-09-30T03:14:32;100158.88;;;17.97;83.54
54948;BME280;41113;41.882;12.530;2022-09-30T03:19:40;100152.09;;;17.86;83.67
54948;BME280;41113;41.882;12.530;2022-09-30T03:25:07;100160.56;;;17.98;83.20
54948;BME280;41113;41.882;12.530;2022-09-30T03:30:48;100161.47;;;17.84;83.89
54948;BME280;41113;41.882;12.530;2022-09-30T03:33:25;100164.34;;;17.76;84.41
54948;BME280;41113;41.882;12.530;2022-09-30T03:36:08;100167.66;;;17.71;84.42
54948;BME280;41113;41.882;12.530;2022-09-30T03:38:48;100174.56;;;17.73;84.40
54948;BME280;41113;41.882;12.530;2022-09-30T03:41:33;100168.72;;;17.77;83.91
54948;BME280;41113;41.882;12.530;2022-09-30T03:44:07;100165.22;;;17.83;83.59
54948;BME280;41113;41.882;12.530;2022-09-30T03:46:43;100171.31;;;17.85;83.37
54948;BME280;41113;41.882;12.530;2022-09-30T03:49:18;100170.75;;;17.89;82.94
54948;BME280;41113;41.882;12.530;2022-09-30T03:51:45;100155.84;;;17.85;83.31
54948;BME280;41113;41.882;12.530;2022-09-30T03:54:12;100168.03;;;17.89;83.20
54948;BME280;41113;41.882;12.530;2022-09-30T03:56:38;100163.47;;;17.96;82.81
54948;BME280;41113;41.882;12.530;2022-09-30T03:59:24;100165.38;;;17.96;82.74
54948;BME280;41113;41.882;12.530;2022-09-30T04:01:51;100155.53;;;17.95;82.67
54948;BME280;41113;41.882;12.530;2022-09-30T04:04:17;100152.09;;;17.86;83.28
54948;BME280;41113;41.882;12.530;2022-09-30T04:06:42;100146.66;;;17.86;83.35
54948;BME280;41113;41.882;12.530;2022-09-30T04:09:08;100142.19;;;18.00;83.03
54948;BME280;41113;41.882;12.530;2022-09-30T04:11:33;100139.88;;;17.97;82.83
54948;BME280;41113;41.882;12.530;2022-09-30T04:13:59;100144.09;;;18.06;82.54
54948;BME280;41113;41.882;12.530;2022-09-30T04:16:27;100148.50;;;18.07;82.30
54948;BME280;41113;41.882;12.530;2022-09-30T04:18:53;100149.34;;;18.08;82.29
54948;BME280;41113;41.882;12.530;2022-09-30T04:21:21;100144.66;;;17.95;82.97
54948;BME280;41113;41.882;12.530;2022-09-30T04:23:47;100137.38;;;17.74;84.39
54948;BME280;41113;41.882;12.530;2022-09-30T04:26:15;100149.31;;;17.80;83.94
54948;BME280;41113;41.882;12.530;2022-09-30T04:28:41;100146.22;;;17.83;84.18
54948;BME280;41113;41.882;12.530;2022-09-30T04:31:09;100157.47;;;17.80;84.09
54948;BME280;41113;41.882;12.530;2022-09-30T04:33:36;100161.22;;;17.79;84.30
54948;BME280;41113;41.882;12.530;2022-09-30T04:36:02;100166.91;;;17.84;83.63
54948;BME280;41113;41.882;12.530;2022-09-30T04:38:28;100156.31;;;17.89;83.56
54948;BME280;41113;41.882;12.530;2022-09-30T04:40:54;100152.38;;;17.91;83.04
54948;BME280;41113;41.882;12.530;2022-09-30T04:43:20;100150.69;;;17.90;83.36
54948;BME280;41113;41.882;12.530;2022-09-30T04:45:50;100158.50;;;18.00;82.90
54948;BME280;41113;41.882;12.530;2022-09-30T04:48:19;100162.94;;;18.08;82.43
54948;BME280;41113;41.882;12.530;2022-09-30T04:50:47;100164.16;;;18.05;82.57
54948;BME280;41113;41.882;12.530;2022-09-30T04:53:14;100164.31;;;17.97;83.39
54948;BME280;41113;41.882;12.530;2022-09-30T04:55:41;100172.22;;;17.92;84.21
54948;BME280;41113;41.882;12.530;2022-09-30T04:58:06;100172.22;;;17.92;84.28
54948;BME280;41113;41.882;12.530;2022-09-30T05:00:32;100171.94;;;17.87;84.38
54948;BME280;41113;41.882;12.530;2022-09-30T05:02:57;100167.50;;;17.79;85.66
54948;BME280;41113;41.882;12.530;2022-09-30T05:05:23;100175.34;;;17.67;86.06
54948;BME280;41113;41.882;12.530;2022-09-30T05:07:48;100183.50;;;17.67;86.85
54948;BME280;41113;41.882;12.530;2022-09-30T05:10:14;100182.66;;;17.67;86.14
54948;BME280;41113;41.882;12.530;2022-09-30T05:12:41;100171.78;;;17.67;86.05
54948;BME280;41113;41.882;12.530;2022-09-30T05:15:07;100168.19;;;17.66;86.92
54948;BME280;41113;41.882;12.530;2022-09-30T05:17:34;100175.34;;;17.67;86.21
54948;BME280;41113;41.882;12.530;2022-09-30T05:19:59;100181.13;;;17.64;87.31
54948;BME280;41113;41.882;12.530;2022-09-30T05:22:25;100193.69;;;17.65;87.13
54948;BME280;41113;41.882;12.530;2022-09-30T05:24:52;100187.50;;;17.71;86.40
54948;BME280;41113;41.882;12.530;2022-09-30T05:27:18;100197.19;;;17.81;86.03
54948;BME280;41113;41.882;12.530;2022-09-30T05:29:44;100192.28;;;17.91;85.57
54948;BME280;41113;41.882;12.530;2022-09-30T05:32:10;100189.41;;;17.99;85.54
54948;BME280;41113;41.882;12.530;2022-09-30T05:34:39;100189.81;;;17.96;85.17
54948;BME280;41113;41.882;12.530;2022-09-30T05:37:05;100189.75;;;17.89;86.49
54948;BME280;41113;41.882;12.530;2022-09-30T05:39:31;100196.41;;;17.87;86.84
54948;BME280;41113;41.882;12.530;2022-09-30T05:41:57;100195.63;;;17.93;87.16
54948;BME280;41113;41.882;12.530;2022-09-30T05:44:22;100198.66;;;18.04;85.59
54948;BME280;41113;41.882;12.530;2022-09-30T05:46:48;100197.41;;;18.07;86.56
54948;BME280;41113;41.882;12.530;2022-09-30T05:49:13;100196.81;;;18.12;85.96
54948;BME280;41113;41.882;12.530;2022-09-30T05:51:39;100198.44;;;18.27;85.28
54948;BME280;41113;41.882;12.530;2022-09-30T05:54:04;100204.97;;;18.40;84.51
54948;BME280;41113;41.882;12.530;2022-09-30T05:56:29;100201.50;;;18.52;84.36
54948;BME280;41113;41.882;12.530;2022-09-30T05:58:55;100199.97;;;18.71;83.57
54948;BME280;41113;41.882;12.530;2022-09-30T06:01:20;100201.72;;;18.85;83.13
54948;BME280;41113;41.882;12.530;2022-09-30T06:03:47;100205.94;;;18.88;82.78
54948;BME280;41113;41.882;12.530;2022-09-30T06:06:14;100213.09;;;18.95;82.69
54948;BME280;41113;41.882;12.530;2022-09-30T06:08:40;100214.19;;;19.08;82.55
54948;BME280;41113;41.882;12.530;2022-09-30T06:11:11;100221.38;;;19.22;81.53
54948;BME280;41113;41.882;12.530;2022-09-30T06:13:38;100206.53;;;19.31;81.16
54948;BME280;41113;41.882;12.530;2022-09-30T06:16:04;100210.28;;;19.30;81.38
54948;BME280;41113;41.882;12.530;2022-09-30T06:18:30;100219.91;;;19.26;81.83
54948;BME280;41113;41.882;12.530;2022-09-30T06:20:59;100211.94;;;19.24;81.92
54948;BME280;41113;41.882;12.530;2022-09-30T06:23:25;100216.34;;;19.25;82.07
54948;BME280;41113;41.882;12.530;2022-09-30T06:25:52;100215.72;;;19.30;81.97
54948;BME280;41113;41.882;12.530;2022-09-30T06:28:18;100211.34;;;19.29;81.94
54948;BME280;41113;41.882;12.530;2022-09-30T06:30:45;100200.25;;;19.37;81.77
54948;BME280;41113;41.882;12.530;2022-09-30T06:33:11;100198.59;;;19.43;81.73
54948;BME280;41113;41.882;12.530;2022-09-30T06:35:37;100208.44;;;19.50;81.24
54948;BME280;41113;41.882;12.530;2022-09-30T06:38:06;100206.00;;;19.55;81.51
54948;BME280;41113;41.882;12.530;2022-09-30T06:40:32;100198.66;;;19.63;81.16
54948;BME280;41113;41.882;12.530;2022-09-30T06:42:58;100206.66;;;19.77;80.63
54948;BME280;41113;41.882;12.530;2022-09-30T06:45:25;100215.06;;;19.89;80.24
54948;BME280;41113;41.882;12.530;2022-09-30T06:47:50;100225.53;;;19.99;79.86
54948;BME280;41113;41.882;12.530;2022-09-30T06:50:17;100231.84;;;19.99;80.07
54948;BME280;41113;41.882;12.530;2022-09-30T06:52:42;100227.63;;;19.90;80.50
54948;BME280;41113;41.882;12.530;2022-09-30T06:55:08;100229.31;;;19.91;80.79
54948;BME280;41113;41.882;12.530;2022-09-30T06:57:33;100244.41;;;19.87;81.19
54948;BME280;41113;41.882;12.530;2022-09-30T07:00:00;100244.00;;;19.90;81.00
54948;BME280;41113;41.882;12.530;2022-09-30T07:02:26;100252.59;;;20.00;80.84
54948;BME280;41113;41.882;12.530;2022-09-30T07:04:53;100251.97;;;20.11;80.02
54948;BME280;41113;41.882;12.530;2022-09-30T07:07:18;100260.38;;;20.16;79.54
54948;BME280;41113;41.882;12.530;2022-09-30T07:09:46;100260.78;;;20.20;79.47
54948;BME280;41113;41.882;12.530;2022-09-30T07:12:11;100266.66;;;20.24;79.44
54948;BME280;41113;41.882;12.530;2022-09-30T07:14:37;100261.22;;;20.30;79.22
54948;BME280;41113;41.882;12.530;2022-09-30T07:17:04;100270.66;;;20.34;79.40
54948;BME280;41113;41.882;12.530;2022-09-30T07:19:30;100284.31;;;20.41;79.00
54948;BME280;41113;41.882;12.530;2022-09-30T07:21:56;100282.00;;;20.58;78.58
54948;BME280;41113;41.882;12.530;2022-09-30T07:24:42;100285.13;;;20.68;78.28
54948;BME280;41113;41.882;12.530;2022-09-30T07:27:07;100287.22;;;20.72;77.96
54948;BME280;41113;41.882;12.530;2022-09-30T07:29:32;100289.53;;;20.82;78.08
54948;BME280;41113;41.882;12.530;2022-09-30T07:31:58;100299.38;;;20.90;77.69
54948;BME280;41113;41.882;12.530;2022-09-30T07:34:23;100313.84;;;20.97;77.65
54948;BME280;41113;41.882;12.530;2022-09-30T07:36:49;100317.00;;;21.00;77.27
54948;BME280;41113;41.882;12.530;2022-09-30T07:39:14;100320.75;;;21.06;77.52
54948;BME280;41113;41.882;12.530;2022-09-30T07:41:39;100339.44;;;21.29;76.71
54948;BME280;41113;41.882;12.530;2022-09-30T07:44:11;100338.75;;;21.40;76.88
54948;BME280;41113;41.882;12.530;2022-09-30T07:46:39;100341.72;;;21.38;76.24
54948;BME280;41113;41.882;12.530;2022-09-30T07:49:07;100349.66;;;21.53;76.16
54948;BME280;41113;41.882;12.530;2022-09-30T07:51:39;100355.28;;;21.65;75.93
54948;BME280;41113;41.882;12.530;2022-09-30T07:56:36;100345.75;;;21.81;75.75
54948;BME280;41113;41.882;12.530;2022-09-30T07:59:04;100350.50;;;21.98;75.26
54948;BME280;41113;41.882;12.530;2022-09-30T08:01:30;100340.38;;;22.12;75.29
54948;BME280;41113;41.882;12.530;2022-09-30T08:03:59;100343.28;;;22.17;75.21
54948;BME280;41113;41.882;12.530;2022-09-30T08:06:25;100339.59;;;22.30;74.66
54948;BME280;41113;41.882;12.530;2022-09-30T08:08:53;100344.97;;;22.43;73.73
54948;BME280;41113;41.882;12.530;2022-09-30T08:11:19;100349.56;;;22.49;74.07
54948;BME280;41113;41.882;12.530;2022-09-30T08:13:50;100350.03;;;22.46;73.90
54948;BME280;41113;41.882;12.530;2022-09-30T08:16:15;100354.06;;;22.37;74.31
54948;BME280;41113;41.882;12.530;2022-09-30T08:18:41;100353.44;;;22.35;74.85
54948;BME280;41113;41.882;12.530;2022-09-30T08:21:07;100365.09;;;22.24;75.36
54948;BME280;41113;41.882;12.530;2022-09-30T08:23:33;100364.94;;;22.19;75.52
54948;BME280;41113;41.882;12.530;2022-09-30T08:26:01;100362.88;;;22.08;76.32
54948;BME280;41113;41.882;12.530;2022-09-30T08:28:27;100366.69;;;22.00;76.79
54948;BME280;41113;41.882;12.530;2022-09-30T08:30:55;100376.81;;;21.93;77.71
54948;BME280;41113;41.882;12.530;2022-09-30T08:33:26;100369.28;;;21.88;78.08
54948;BME280;41113;41.882;12.530;2022-09-30T08:35:52;100374.75;;;21.88;78.00
54948;BME280;41113;41.882;12.530;2022-09-30T08:38:17;100370.94;;;21.89;77.78
54948;BME280;41113;41.882;12.530;2022-09-30T08:43:57;100380.63;;;21.92;78.09
54948;BME280;41113;41.882;12.530;2022-09-30T08:46:41;100389.44;;;21.94;77.96
54948;BME280;41113;41.882;12.530;2022-09-30T08:49:28;100381.00;;;21.95;78.07
54948;BME280;41113;41.882;12.530;2022-09-30T08:51:59;100369.25;;;21.95;77.33
54948;BME280;41113;41.882;12.530;2022-09-30T08:54:29;100364.38;;;21.97;77.41
54948;BME280;41113;41.882;12.530;2022-09-30T08:56:56;100359.34;;;21.94;76.61
54948;BME280;41113;41.882;12.530;2022-09-30T08:59:40;100359.34;;;21.94;75.71
54948;BME280;41113;41.882;12.530;2022-09-30T09:02:26;100359.56;;;21.92;75.21
54948;BME280;41113;41.882;12.530;2022-09-30T09:05:04;100355.78;;;21.93;75.25
54948;BME280;41113;41.882;12.530;2022-09-30T09:10:18;100362.88;;;22.01;75.03
54948;BME280;41113;41.882;12.530;2022-09-30T09:18:32;100359.75;;;21.97;74.87
54948;BME280;41113;41.882;12.530;2022-09-30T09:21:13;100361.28;;;21.87;74.61
54948;BME280;41113;41.882;12.530;2022-09-30T09:23:41;100368.03;;;21.78;73.97
54948;BME280;41113;41.882;12.530;2022-09-30T09:26:11;100418.13;;;21.71;74.03
54948;BME280;41113;41.882;12.530;2022-09-30T09:31:24;100445.94;;;21.22;76.44
54948;BME280;41113;41.882;12.530;2022-09-30T09:33:50;100430.22;;;20.91;77.60
54948;BME280;41113;41.882;12.530;2022-09-30T09:36:29;100420.34;;;20.84;78.25
54948;BME280;41113;41.882;12.530;2022-09-30T09:41:54;100413.63;;;20.86;79.00
54948;BME280;41113;41.882;12.530;2022-09-30T09:47:13;100406.34;;;21.71;77.26
54948;BME280;41113;41.882;12.530;2022-09-30T09:50:02;100410.44;;;22.07;76.36
54948;BME280;41113;41.882;12.530;2022-09-30T09:52:39;100420.78;;;22.36;74.33
54948;BME280;41113;41.882;12.530;2022-09-30T09:55:08;100415.16;;;22.62;73.66
54948;BME280;41113;41.882;12.530;2022-09-30T09:57:36;100434.84;;;22.46;73.80
54948;BME280;41113;41.882;12.530;2022-09-30T10:00:09;100434.47;;;22.36;74.17
54948;BME280;41113;41.882;12.530;2022-09-30T10:05:31;100440.28;;;22.15;73.08
54948;BME280;41113;41.882;12.530;2022-09-30T10:08:10;100454.19;;;22.13;72.08
54948;BME280;41113;41.882;12.530;2022-09-30T10:10:46;100448.28;;;22.10;70.73
54948;BME280;41113;41.882;12.530;2022-09-30T10:13:18;100441.53;;;22.19;71.35
54948;BME280;41113;41.882;12.530;2022-09-30T10:15:44;100445.16;;;22.13;69.93
54948;BME280;41113;41.882;12.530;2022-09-30T10:18:20;100441.97;;;22.16;70.06
54948;BME280;41113;41.882;12.530;2022-09-30T10:21:18;100425.13;;;22.19;68.77
54948;BME280;41113;41.882;12.530;2022-09-30T10:23:44;100412.50;;;22.18;68.81
54948;BME280;41113;41.882;12.530;2022-09-30T10:31:28;100399.13;;;22.66;67.81
54948;BME280;41113;41.882;12.530;2022-09-30T10:36:56;100392.16;;;22.95;65.82
54948;BME280;41113;41.882;12.530;2022-09-30T10:39:29;100397.81;;;23.00;65.67
54948;BME280;41113;41.882;12.530;2022-09-30T10:42:06;100408.06;;;23.11;64.79
54948;BME280;41113;41.882;12.530;2022-09-30T10:44:44;100420.00;;;23.17;63.67
54948;BME280;41113;41.882;12.530;2022-09-30T10:47:14;100418.03;;;23.24;64.44
54948;BME280;41113;41.882;12.530;2022-09-30T10:50:02;100411.41;;;23.32;62.48
54948;BME280;41113;41.882;12.530;2022-09-30T10:52:38;100421.09;;;23.34;60.49
54948;BME280;41113;41.882;12.530;2022-09-30T10:55:28;100423.19;;;23.14;60.10
54948;BME280;41113;41.882;12.530;2022-09-30T10:57:57;100417.75;;;23.07;62.30
54948;BME280;41113;41.882;12.530;2022-09-30T11:00:25;100428.44;;;23.15;62.27
54948;BME280;41113;41.882;12.530;2022-09-30T11:03:04;100424.28;;;23.31;60.45
54948;BME280;41113;41.882;12.530;2022-09-30T11:05:38;100432.28;;;23.33;61.15
54948;BME280;41113;41.882;12.530;2022-09-30T11:08:28;100437.59;;;23.27;60.05
54948;BME280;41113;41.882;12.530;2022-09-30T11:11:13;100431.81;;;23.36;59.53
54948;BME280;41113;41.882;12.530;2022-09-30T11:13:57;100436.06;;;23.56;58.56
54948;BME280;41113;41.882;12.530;2022-09-30T11:22:44;100460.00;;;23.68;57.73
54948;BME280;41113;41.882;12.530;2022-09-30T11:25:12;100470.03;;;23.74;57.72
54948;BME280;41113;41.882;12.530;2022-09-30T11:35:59;100463.06;;;23.53;57.41
54948;BME280;41113;41.882;12.530;2022-09-30T11:41:28;100450.84;;;23.74;56.97
54948;BME280;41113;41.882;12.530;2022-09-30T11:49:51;100467.84;;;23.64;57.58
54948;BME280;41113;41.882;12.530;2022-09-30T11:55:06;100475.91;;;23.59;57.46
54948;BME280;41113;41.882;12.530;2022-09-30T11:57:56;100468.59;;;23.71;57.59
54948;BME280;41113;41.882;12.530;2022-09-30T12:00:24;100471.94;;;23.73;57.71
54948;BME280;41113;41.882;12.530;2022-09-30T12:03:00;100476.91;;;23.65;58.00
54948;BME280;41113;41.882;12.530;2022-09-30T12:05:38;100462.13;;;23.41;57.83
54948;BME280;41113;41.882;12.530;2022-09-30T12:10:41;100479.47;;;23.35;59.14
54948;BME280;41113;41.882;12.530;2022-09-30T12:13:12;100476.13;;;23.33;58.35
54948;BME280;41113;41.882;12.530;2022-09-30T12:15:42;100478.31;;;23.24;58.90
54948;BME280;41113;41.882;12.530;2022-09-30T12:18:16;100483.88;;;23.17;59.54
54948;BME280;41113;41.882;12.530;2022-09-30T12:20:57;100487.72;;;23.10;59.46
54948;BME280;41113;41.882;12.530;2022-09-30T12:23:32;100477.84;;;23.02;59.80
54948;BME280;41113;41.882;12.530;2022-09-30T12:26:22;100478.47;;;23.04;60.02
54948;BME280;41113;41.882;12.530;2022-09-30T12:32:07;100481.66;;;23.01;59.33
54948;BME280;41113;41.882;12.530;2022-09-30T12:46:24;100476.91;;;22.90;59.95
54948;BME280;41113;41.882;12.530;2022-09-30T12:48:58;100472.22;;;22.97;60.02
54948;BME280;41113;41.882;12.530;2022-09-30T12:51:32;100463.25;;;23.08;60.06
54948;BME280;41113;41.882;12.530;2022-09-30T12:54:05;100466.44;;;23.05;59.72
54948;BME280;41113;41.882;12.530;2022-09-30T12:56:41;100469.41;;;23.04;59.98
54948;BME280;41113;41.882;12.530;2022-09-30T12:59:07;100465.84;;;23.03;60.06
54948;BME280;41113;41.882;12.530;2022-09-30T13:01:38;100457.00;;;23.01;59.88
54948;BME280;41113;41.882;12.530;2022-09-30T13:19:34;100454.44;;;23.06;60.76
54948;BME280;41113;41.882;12.530;2022-09-30T13:32:40;100454.00;;;23.09;59.70
54948;BME280;41113;41.882;12.530;2022-09-30T13:35:35;100466.41;;;23.12;59.88
54948;BME280;41113;41.882;12.530;2022-09-30T13:43:20;100463.00;;;23.16;59.25
54948;BME280;41113;41.882;12.530;2022-09-30T13:45:50;100456.47;;;23.17;58.38
54948;BME280;41113;41.882;12.530;2022-09-30T13:48:22;100462.94;;;23.23;59.15
54948;BME280;41113;41.882;12.530;2022-09-30T13:50:54;100460.66;;;23.20;59.30
54948;BME280;41113;41.882;12.530;2022-09-30T13:53:32;100462.31;;;23.21;59.16
54948;BME280;41113;41.882;12.530;2022-09-30T13:56:06;100465.91;;;23.21;59.49
54948;BME280;41113;41.882;12.530;2022-09-30T14:12:47;100460.59;;;23.26;59.39
54948;BME280;41113;41.882;12.530;2022-09-30T14:21:35;100463.94;;;23.28;59.98
54948;BME280;41113;41.882;12.530;2022-09-30T14:26:57;100467.28;;;23.31;60.66
54948;BME280;41113;41.882;12.530;2022-09-30T14:29:46;100463.56;;;23.25;61.49
54948;BME280;41113;41.882;12.530;2022-09-30T14:32:33;100459.75;;;23.26;61.27
54948;BME280;41113;41.882;12.530;2022-09-30T14:35:05;100463.94;;;23.28;61.17
54948;BME280;41113;41.882;12.530;2022-09-30T14:37:35;100466.53;;;23.23;60.54
54948;BME280;41113;41.882;12.530;2022-09-30T14:40:08;100465.28;;;23.19;60.33
54948;BME280;41113;41.882;12.530;2022-09-30T14:42:37;100463.78;;;23.23;60.99
54948;BME280;41113;41.882;12.530;2022-09-30T14:45:06;100472.00;;;23.23;60.80
54948;BME280;41113;41.882;12.530;2022-09-30T14:47:35;100462.31;;;23.21;60.93
54948;BME280;41113;41.882;12.530;2022-09-30T14:50:13;100471.63;;;23.20;61.06
54948;BME280;41113;41.882;12.530;2022-09-30T14:52:42;100459.38;;;23.22;61.12
54948;BME280;41113;41.882;12.530;2022-09-30T14:55:35;100468.19;;;23.24;61.45
54948;BME280;41113;41.882;12.530;2022-09-30T14:58:27;100466.06;;;23.26;61.58
54948;BME280;41113;41.882;12.530;2022-09-30T15:00:59;100460.59;;;23.26;61.45
54948;BME280;41113;41.882;12.530;2022-09-30T15:03:27;100459.38;;;23.22;61.46
54948;BME280;41113;41.882;12.530;2022-09-30T15:05:54;100461.03;;;23.23;61.57
54948;BME280;41113;41.882;12.530;2022-09-30T15:08:21;100462.72;;;23.24;61.86
54948;BME280;41113;41.882;12.530;2022-09-30T15:10:48;100466.06;;;23.26;61.80
54948;BME280;41113;41.882;12.530;2022-09-30T15:13:17;100461.44;;;23.27;61.87
54948;BME280;41113;41.882;12.530;2022-09-30T15:15:43;100458.84;;;23.32;61.88
54948;BME280;41113;41.882;12.530;2022-09-30T15:18:29;100460.53;;;23.33;61.74
54948;BME280;41113;41.882;12.530;2022-09-30T15:20:58;100467.28;;;23.31;61.73
54948;BME280;41113;41.882;12.530;2022-09-30T15:23:27;100465.63;;;23.29;61.44
54948;BME280;41113;41.882;12.530;2022-09-30T15:25:54;100462.25;;;23.27;61.80
54948;BME280;41113;41.882;12.530;2022-09-30T15:28:21;100458.47;;;23.28;61.85
54948;BME280;41113;41.882;12.530;2022-09-30T15:30:47;100452.97;;;23.28;60.99
54948;BME280;41113;41.882;12.530;2022-09-30T15:33:18;100461.81;;;23.31;60.76
54948;BME280;41113;41.882;12.530;2022-09-30T15:35:44;100454.28;;;23.26;61.04
54948;BME280;41113;41.882;12.530;2022-09-30T15:38:22;100466.53;;;23.23;60.67
54948;BME280;41113;41.882;12.530;2022-09-30T15:41:00;100458.97;;;23.19;60.46
54948;BME280;41113;41.882;12.530;2022-09-30T15:43:37;100452.03;;;23.16;60.39